Time;durP1;ratioP1;P1;durP2;ratioP2;P2;SDS_P1;SDS_P2;PMS_P1;PMS_P2;Temp;Humidity;BMP_temperature;BMP_pressure;BME280_temperature;BME280_humidity;BME280_pressure;Samples;Min_cycle;Max_cycle;Signal;HPM_P1;HPM_P2
2023/12/07 00:01:35;;;;;;;12.00;8.33;;;1.60;99.90;;;;;;5077277;28;20470;-81
2023/12/07 00:04:03;;;;;;;13.13;8.53;;;1.60;99.90;;;;;;5072907;28;20947;-81
2023/12/07 00:06:30;;;;;;;16.60;10.60;;;1.60;99.90;;;;;;5084341;28;20529;-81
2023/12/07 00:08:58;;;;;;;19.07;8.93;;;1.60;99.90;;;;;;5065561;28;20466;-81
2023/12/07 00:11:25;;;;;;;12.97;9.37;;;1.60;99.90;;;;;;5072188;28;20464;-81
2023/12/07 00:13:52;;;;;;;12.53;10.00;;;1.60;99.90;;;;;;5074700;28;20923;-81
2023/12/07 00:16:19;;;;;;;12.43;9.13;;;1.60;99.90;;;;;;5079622;28;20508;-81
2023/12/07 00:18:46;;;;;;;12.10;8.37;;;1.70;99.90;;;;;;5079647;28;20525;-82
2023/12/07 00:21:14;;;;;;;13.10;9.33;;;1.70;99.90;;;;;;5084910;28;20954;-82
2023/12/07 00:23:41;;;;;;;10.50;8.73;;;1.70;99.90;;;;;;5068750;28;20505;-82
2023/12/07 00:26:08;;;;;;;10.20;7.83;;;1.70;99.90;;;;;;5073743;28;20976;-82
2023/12/07 00:28:35;;;;;;;13.20;11.17;;;1.60;99.90;;;;;;5086515;28;20446;-82
2023/12/07 00:31:03;;;;;;;12.47;7.33;;;1.70;99.90;;;;;;5075848;28;20536;-82
2023/12/07 00:33:29;;;;;;;13.13;8.33;;;1.70;99.90;;;;;;5076113;28;20450;-81
2023/12/07 00:35:56;;;;;;;13.30;9.93;;;1.70;99.90;;;;;;5072765;28;20987;-82
2023/12/07 00:38:25;;;;;;;12.30;8.90;;;1.70;99.90;;;;;;5072650;28;20486;-81
2023/12/07 00:40:52;;;;;;;12.83;8.93;;;1.70;99.90;;;;;;5069440;28;20497;-82
2023/12/07 00:43:19;;;;;;;11.33;8.20;;;1.70;99.90;;;;;;5076235;28;20540;-82
2023/12/07 00:45:46;;;;;;;13.33;9.20;;;1.70;99.90;;;;;;5065258;28;21024;-83
2023/12/07 00:48:13;;;;;;;13.70;8.63;;;1.70;99.90;;;;;;5064704;28;20684;-82
2023/12/07 00:50:39;;;;;;;16.63;9.87;;;1.70;99.90;;;;;;5070860;28;20436;-82
2023/12/07 00:53:07;;;;;;;11.50;7.80;;;1.70;99.90;;;;;;5080065;28;20517;-82
2023/12/07 00:55:35;;;;;;;16.17;11.70;;;1.70;99.90;;;;;;5071450;28;20834;-82
2023/12/07 00:58:02;;;;;;;15.60;10.00;;;1.70;99.90;;;;;;5082134;28;20518;-82
2023/12/07 01:00:29;;;;;;;12.53;8.70;;;1.70;99.90;;;;;;5076402;28;20544;-82
2023/12/07 01:02:56;;;;;;;15.07;10.13;;;1.60;99.90;;;;;;5073924;28;20443;-82
2023/12/07 01:05:23;;;;;;;12.70;8.33;;;1.60;99.90;;;;;;5078811;28;20515;-82
2023/12/07 01:07:50;;;;;;;14.17;9.10;;;1.60;99.90;;;;;;5075709;28;20443;-82
2023/12/07 01:10:17;;;;;;;16.03;9.77;;;1.60;99.90;;;;;;5078998;28;20902;-82
2023/12/07 01:12:45;;;;;;;12.10;8.90;;;1.60;99.90;;;;;;5073253;28;20456;-82
2023/12/07 01:15:12;;;;;;;16.20;8.37;;;1.60;99.90;;;;;;5078087;28;20575;-82
2023/12/07 01:17:39;;;;;;;13.77;10.10;;;1.60;99.90;;;;;;5079804;28;20490;-82
2023/12/07 01:20:11;;;;;;;11.07;7.60;;;1.60;99.90;;;;;;5078228;28;20508;-82
2023/12/07 01:22:39;;;;;;;14.70;10.37;;;1.60;99.90;;;;;;5079826;28;20471;-82
2023/12/07 01:25:07;;;;;;;13.50;9.80;;;1.60;99.90;;;;;;5064980;28;20469;-82
2023/12/07 01:27:35;;;;;;;13.47;9.80;;;1.60;99.90;;;;;;5068997;28;20501;-82
2023/12/07 01:30:03;;;;;;;14.10;9.10;;;1.50;99.90;;;;;;5081382;28;20455;-82
2023/12/07 01:32:30;;;;;;;11.60;9.83;;;1.50;99.90;;;;;;5077701;28;20460;-82
2023/12/07 01:34:57;;;;;;;14.73;8.43;;;1.60;99.90;;;;;;5081697;28;20835;-82
2023/12/07 01:37:24;;;;;;;15.60;10.10;;;1.50;99.90;;;;;;5079044;28;20487;-82
2023/12/07 01:39:51;;;;;;;13.03;9.77;;;1.50;99.90;;;;;;5079749;28;20443;-82
2023/12/07 01:42:18;;;;;;;13.30;8.90;;;1.50;99.90;;;;;;5077678;28;20510;-82
2023/12/07 01:44:45;;;;;;;12.90;8.77;;;1.50;99.90;;;;;;5071596;28;20532;-82
2023/12/07 01:47:14;;;;;;;13.20;9.87;;;1.60;99.90;;;;;;5081559;28;20435;-82
2023/12/07 01:49:42;;;;;;;12.07;9.53;;;1.60;99.90;;;;;;5073701;28;20440;-82
2023/12/07 01:52:11;;;;;;;13.73;8.70;;;1.60;99.90;;;;;;5081998;28;20439;-82
2023/12/07 01:54:39;;;;;;;10.90;8.83;;;1.60;99.90;;;;;;5077024;28;20637;-82
2023/12/07 01:57:06;;;;;;;17.83;11.70;;;1.60;99.90;;;;;;5080123;28;20792;-82
2023/12/07 01:59:34;;;;;;;15.17;9.73;;;1.60;99.90;;;;;;5079063;28;20907;-82
2023/12/07 02:02:01;;;;;;;14.03;10.07;;;1.60;99.90;;;;;;5080154;28;20499;-82
2023/12/07 02:04:30;;;;;;;11.63;8.90;;;1.60;99.90;;;;;;5066757;28;20459;-82
2023/12/07 02:06:59;;;;;;;14.57;10.60;;;1.60;99.90;;;;;;5078585;28;20442;-82
2023/12/07 02:09:26;;;;;;;17.30;10.77;;;1.60;99.90;;;;;;5069065;28;20539;-82
2023/12/07 02:11:53;;;;;;;15.13;10.10;;;1.60;99.90;;;;;;5077199;28;20438;-82
2023/12/07 02:14:20;;;;;;;12.67;8.43;;;1.60;99.90;;;;;;5067929;28;20498;-82
2023/12/07 02:16:52;;;;;;;13.53;10.37;;;1.60;99.90;;;;;;5071062;28;20467;-82
2023/12/07 02:19:50;;;;;;;14.80;10.43;;;1.60;99.90;;;;;;5068482;28;20451;-82
2023/12/07 02:22:23;;;;;;;16.60;9.30;;;1.60;99.90;;;;;;5073060;28;20512;-82
2023/12/07 02:25:07;;;;;;;13.27;9.77;;;1.60;99.90;;;;;;5069990;28;20459;-81
2023/12/07 02:27:37;;;;;;;12.93;9.10;;;1.50;99.90;;;;;;5065458;28;20470;-82
2023/12/07 02:30:05;;;;;;;11.40;8.33;;;1.50;99.90;;;;;;5062324;28;20501;-83
2023/12/07 02:32:32;;;;;;;13.27;8.83;;;1.50;99.90;;;;;;5069136;28;20531;-82
2023/12/07 02:34:59;;;;;;;15.20;10.43;;;1.40;99.90;;;;;;5069892;28;20707;-82
2023/12/07 02:37:29;;;;;;;12.70;10.33;;;1.40;99.90;;;;;;5078048;28;20567;-82
2023/12/07 02:39:57;;;;;;;11.10;8.87;;;1.40;99.90;;;;;;5075385;28;20479;-82
2023/12/07 02:42:26;;;;;;;11.90;7.93;;;1.40;99.90;;;;;;5074016;28;20454;-82
2023/12/07 02:44:55;;;;;;;12.30;9.17;;;1.40;99.90;;;;;;5067973;28;20461;-82
2023/12/07 02:47:22;;;;;;;11.60;8.33;;;1.50;99.90;;;;;;5086882;28;20499;-82
2023/12/07 02:49:49;;;;;;;11.90;8.50;;;1.50;99.90;;;;;;5083468;28;20965;-82
2023/12/07 02:52:16;;;;;;;13.87;9.43;;;1.50;99.90;;;;;;5100983;28;20605;-82
2023/12/07 02:54:43;;;;;;;13.00;8.13;;;1.50;99.90;;;;;;5083799;28;20492;-83
2023/12/07 02:57:10;;;;;;;16.57;9.77;;;1.50;99.90;;;;;;5083555;28;20779;-82
2023/12/07 02:59:37;;;;;;;12.23;8.70;;;1.50;99.90;;;;;;5077385;28;20995;-82
2023/12/07 03:02:05;;;;;;;12.07;9.17;;;1.50;99.90;;;;;;5085447;28;20446;-82
2023/12/07 03:04:32;;;;;;;11.83;7.80;;;1.50;99.90;;;;;;5084909;28;20512;-82
2023/12/07 03:06:59;;;;;;;12.17;8.13;;;1.50;99.90;;;;;;5067743;28;20464;-82
2023/12/07 03:09:26;;;;;;;12.40;9.10;;;1.40;99.90;;;;;;5071762;28;20447;-82
2023/12/07 03:11:53;;;;;;;16.60;11.70;;;1.50;99.90;;;;;;5085497;28;20906;-82
2023/12/07 03:14:20;;;;;;;10.03;8.33;;;1.40;99.90;;;;;;5074143;28;20508;-82
2023/12/07 03:16:47;;;;;;;12.80;8.97;;;1.40;99.90;;;;;;5078273;28;20459;-82
2023/12/07 03:19:15;;;;;;;13.20;8.60;;;1.50;99.90;;;;;;5077770;28;20552;-82
2023/12/07 03:21:43;;;;;;;12.03;8.57;;;1.40;99.90;;;;;;5073298;28;20475;-82
2023/12/07 03:24:10;;;;;;;14.40;8.53;;;1.50;99.90;;;;;;5075552;28;20439;-82
2023/12/07 03:26:37;;;;;;;11.87;8.47;;;1.40;99.90;;;;;;5082409;28;21043;-82
2023/12/07 03:29:04;;;;;;;16.40;11.90;;;1.50;99.90;;;;;;5076749;28;20439;-82
2023/12/07 03:31:32;;;;;;;12.13;8.60;;;1.50;99.90;;;;;;5079912;28;20973;-82
2023/12/07 03:34:01;;;;;;;15.40;9.10;;;1.50;99.90;;;;;;5085194;28;20448;-82
2023/12/07 03:36:29;;;;;;;11.93;9.40;;;1.50;99.90;;;;;;5083525;28;20535;-82
2023/12/07 03:38:56;;;;;;;10.00;7.30;;;1.40;99.90;;;;;;5086099;28;20523;-82
2023/12/07 03:41:23;;;;;;;12.90;9.50;;;1.40;99.90;;;;;;5087209;28;20442;-83
2023/12/07 03:43:50;;;;;;;16.27;8.93;;;1.50;99.90;;;;;;5073918;28;20471;-82
2023/12/07 03:46:18;;;;;;;10.50;7.17;;;1.50;99.90;;;;;;5079909;28;20610;-82
2023/12/07 03:48:45;;;;;;;12.30;9.00;;;1.50;99.90;;;;;;5074131;28;20466;-83
2023/12/07 03:51:16;;;;;;;14.00;9.60;;;1.40;99.90;;;;;;5088177;28;20532;-82
2023/12/07 03:53:44;;;;;;;16.07;8.63;;;1.50;99.90;;;;;;5066813;28;20451;-82
2023/12/07 03:56:11;;;;;;;13.40;8.20;;;1.50;99.90;;;;;;5075600;28;20931;-83
2023/12/07 03:58:39;;;;;;;13.77;8.97;;;1.50;99.90;;;;;;5076611;28;20487;-82
2023/12/07 04:01:06;;;;;;;15.30;10.43;;;1.50;99.90;;;;;;5080215;28;20507;-83
2023/12/07 04:03:34;;;;;;;12.73;8.97;;;1.40;99.90;;;;;;5075273;28;20915;-83
2023/12/07 04:06:02;;;;;;;12.83;7.90;;;1.40;99.90;;;;;;5074034;28;20474;-82
2023/12/07 04:08:29;;;;;;;11.40;8.60;;;1.50;99.90;;;;;;5076498;28;20470;-83
2023/12/07 04:10:57;;;;;;;14.37;8.63;;;1.40;99.90;;;;;;5085001;28;20447;-83
2023/12/07 04:13:24;;;;;;;12.50;9.10;;;1.50;99.90;;;;;;5073078;28;20464;-83
2023/12/07 04:15:51;;;;;;;10.67;7.30;;;1.40;99.90;;;;;;5081999;28;20499;-82
2023/12/07 04:18:19;;;;;;;14.33;8.73;;;1.30;99.90;;;;;;5070867;28;20483;-83
2023/12/07 04:20:46;;;;;;;13.77;10.07;;;1.30;99.90;;;;;;5074826;28;20478;-82
2023/12/07 04:23:13;;;;;;;13.50;9.53;;;1.40;99.90;;;;;;5075707;28;20470;-82
2023/12/07 04:25:40;;;;;;;11.37;8.40;;;1.40;99.90;;;;;;5075542;28;20503;-82
2023/12/07 04:28:08;;;;;;;10.00;6.90;;;1.40;99.90;;;;;;5074445;28;20471;-82
2023/12/07 04:30:35;;;;;;;11.00;8.40;;;1.40;99.90;;;;;;5082228;28;20471;-82
2023/12/07 04:33:02;;;;;;;13.87;9.00;;;1.40;99.90;;;;;;5079125;28;20455;-82
2023/12/07 04:35:29;;;;;;;10.67;7.80;;;1.40;99.90;;;;;;5082198;28;20478;-82
2023/12/07 04:37:56;;;;;;;12.40;9.80;;;1.40;99.90;;;;;;5077663;28;20536;-82
2023/12/07 04:40:24;;;;;;;13.83;9.47;;;1.40;99.90;;;;;;5072089;28;21213;-82
2023/12/07 04:42:51;;;;;;;13.73;8.53;;;1.40;99.90;;;;;;5068191;28;20443;-82
2023/12/07 04:45:19;;;;;;;13.67;8.23;;;1.50;99.90;;;;;;5065389;28;20455;-82
2023/12/07 04:47:47;;;;;;;11.47;8.17;;;1.40;99.90;;;;;;5083081;28;20451;-82
2023/12/07 04:50:14;;;;;;;10.67;8.30;;;1.40;99.90;;;;;;5083983;28;20475;-82
2023/12/07 04:52:41;;;;;;;14.13;8.90;;;1.40;99.90;;;;;;5073497;28;20513;-82
2023/12/07 04:55:08;;;;;;;15.27;8.60;;;1.50;99.90;;;;;;5074576;28;20486;-82
2023/12/07 04:57:36;;;;;;;15.30;9.67;;;1.40;99.90;;;;;;5080260;28;20854;-82
2023/12/07 05:00:06;;;;;;;13.67;9.73;;;1.40;99.90;;;;;;5074778;28;20783;-83
2023/12/07 05:02:34;;;;;;;14.70;10.20;;;1.40;99.90;;;;;;5079286;28;20479;-83
2023/12/07 05:05:01;;;;;;;20.50;11.10;;;1.40;99.90;;;;;;5079724;28;20444;-83
2023/12/07 05:07:28;;;;;;;13.63;10.07;;;1.40;99.90;;;;;;5068873;28;20537;-83
2023/12/07 05:09:55;;;;;;;11.83;7.80;;;1.40;99.90;;;;;;5065657;28;20455;-82
2023/12/07 05:12:22;;;;;;;14.63;9.60;;;1.40;99.90;;;;;;5074834;28;20451;-83
2023/12/07 05:14:50;;;;;;;14.10;8.47;;;1.40;99.90;;;;;;5072519;28;20456;-83
2023/12/07 05:17:17;;;;;;;17.23;9.53;;;1.40;99.90;;;;;;5077524;28;20481;-83
2023/12/07 05:19:46;;;;;;;14.53;9.80;;;1.30;99.90;;;;;;5064141;28;20479;-82
2023/12/07 05:22:15;;;;;;;28.87;15.13;;;1.40;99.90;;;;;;5066317;28;20460;-84
2023/12/07 05:24:42;;;;;;;26.10;12.90;;;1.40;99.90;;;;;;5070812;28;20499;-81
2023/12/07 05:27:09;;;;;;;23.27;14.80;;;1.40;99.90;;;;;;5069357;28;20455;-81
2023/12/07 05:29:36;;;;;;;23.43;14.50;;;1.30;99.90;;;;;;5068989;28;20532;-82
2023/12/07 05:32:04;;;;;;;15.90;11.40;;;1.30;99.90;;;;;;5078230;28;20451;-82
2023/12/07 05:34:31;;;;;;;19.17;10.63;;;1.30;99.90;;;;;;5071343;28;20438;-82
2023/12/07 05:36:59;;;;;;;16.67;10.80;;;1.30;99.90;;;;;;5073057;28;20974;-81
2023/12/07 05:39:26;;;;;;;18.33;12.33;;;1.30;99.90;;;;;;5064584;28;20963;-81
2023/12/07 05:41:53;;;;;;;16.67;12.93;;;1.30;99.90;;;;;;5069815;28;20659;-81
2023/12/07 05:44:22;;;;;;;15.60;10.80;;;1.30;99.90;;;;;;5074896;28;20715;-81
2023/12/07 05:46:49;;;;;;;14.10;10.63;;;1.30;99.90;;;;;;5076535;28;20455;-82
2023/12/07 05:49:16;;;;;;;11.07;9.70;;;1.30;99.90;;;;;;5074614;28;20463;-83
2023/12/07 05:51:43;;;;;;;14.63;9.90;;;1.30;99.90;;;;;;5074060;28;21077;-82
2023/12/07 05:54:11;;;;;;;17.27;10.83;;;1.30;99.90;;;;;;5067001;28;20471;-82
2023/12/07 05:56:38;;;;;;;17.60;10.90;;;1.30;99.90;;;;;;5079154;28;20536;-82
2023/12/07 05:59:05;;;;;;;15.43;10.80;;;1.40;99.90;;;;;;5068618;28;20486;-83
2023/12/07 06:01:33;;;;;;;16.30;10.60;;;1.40;99.90;;;;;;5073355;28;20808;-83
2023/12/07 06:03:59;;;;;;;15.50;10.70;;;1.40;99.90;;;;;;5076536;28;20458;-82
2023/12/07 06:06:26;;;;;;;15.40;10.60;;;1.40;99.90;;;;;;5078141;28;20463;-83
2023/12/07 06:08:54;;;;;;;13.50;9.93;;;1.40;99.90;;;;;;5081039;28;20458;-83
2023/12/07 06:11:22;;;;;;;14.73;10.33;;;1.40;99.90;;;;;;5080676;28;20520;-82
2023/12/07 06:13:49;;;;;;;11.80;7.60;;;1.40;99.90;;;;;;5073021;28;20540;-82
2023/12/07 06:16:17;;;;;;;16.70;10.33;;;1.40;99.90;;;;;;5066715;28;20520;-83
2023/12/07 06:18:44;;;;;;;16.30;9.20;;;1.40;99.90;;;;;;5081823;28;20483;-83
2023/12/07 06:21:12;;;;;;;16.20;11.13;;;1.40;99.90;;;;;;5075408;28;20469;-83
2023/12/07 06:23:39;;;;;;;15.73;9.73;;;1.50;99.90;;;;;;5074358;28;20490;-83
2023/12/07 06:26:06;;;;;;;24.20;15.63;;;1.50;99.90;;;;;;5065373;28;20482;-82
2023/12/07 06:28:35;;;;;;;20.00;12.40;;;1.50;99.90;;;;;;5074333;28;21111;-82
2023/12/07 06:31:07;;;;;;;17.50;12.67;;;1.40;99.90;;;;;;5071494;28;20523;-83
2023/12/07 06:33:34;;;;;;;19.37;11.70;;;1.40;99.90;;;;;;5074265;28;20485;-83
2023/12/07 06:36:03;;;;;;;16.97;11.00;;;1.40;99.90;;;;;;5078077;28;20800;-83
2023/12/07 06:38:30;;;;;;;14.53;10.03;;;1.30;99.90;;;;;;5078134;28;20990;-83
2023/12/07 06:40:57;;;;;;;17.33;10.90;;;1.30;99.90;;;;;;5074610;28;20471;-83
2023/12/07 06:43:24;;;;;;;13.60;10.60;;;1.30;99.90;;;;;;5067267;28;20467;-83
2023/12/07 06:45:52;;;;;;;17.83;11.23;;;1.30;99.90;;;;;;5073413;28;20988;-83
2023/12/07 06:48:19;;;;;;;15.03;11.27;;;1.30;99.90;;;;;;5068268;28;20806;-83
2023/12/07 06:50:46;;;;;;;14.80;10.00;;;1.40;99.90;;;;;;5085355;28;20453;-82
2023/12/07 06:53:15;;;;;;;12.73;11.07;;;1.40;99.90;;;;;;5071594;28;20550;-83
2023/12/07 06:55:43;;;;;;;14.73;9.30;;;1.40;99.90;;;;;;5076719;28;20530;-82
2023/12/07 06:58:10;;;;;;;13.37;9.27;;;1.40;99.90;;;;;;5064280;28;20470;-83
2023/12/07 07:00:37;;;;;;;14.97;9.93;;;1.40;99.90;;;;;;5069299;28;20554;-83
2023/12/07 07:03:07;;;;;;;15.10;10.87;;;1.40;99.90;;;;;;5079256;28;20504;-82
2023/12/07 07:05:34;;;;;;;14.37;9.90;;;1.40;99.90;;;;;;5072782;28;20872;-83
2023/12/07 07:08:01;;;;;;;18.20;11.00;;;1.50;99.90;;;;;;5069488;28;20466;-83
2023/12/07 07:10:28;;;;;;;17.13;11.53;;;1.50;99.90;;;;;;5071634;28;21051;-83
2023/12/07 07:12:55;;;;;;;13.53;9.93;;;1.50;99.90;;;;;;5074811;28;20524;-83
2023/12/07 07:15:25;;;;;;;21.30;9.77;;;1.50;99.90;;;;;;5071363;28;20454;-82
2023/12/07 07:17:52;;;;;;;13.07;11.30;;;1.50;99.90;;;;;;5078237;28;20470;-82
2023/12/07 07:20:20;;;;;;;13.37;10.30;;;1.60;99.90;;;;;;5074097;28;20520;-82
2023/12/07 07:22:47;;;;;;;18.63;11.33;;;1.50;99.90;;;;;;5063725;28;20518;-82
2023/12/07 07:25:16;;;;;;;19.77;11.67;;;1.50;99.90;;;;;;5066959;28;20466;-82
2023/12/07 07:27:43;;;;;;;17.83;11.83;;;1.50;99.90;;;;;;5071094;28;20912;-82
2023/12/07 07:30:11;;;;;;;14.97;10.53;;;1.60;99.90;;;;;;5068985;28;20522;-83
2023/12/07 07:32:37;;;;;;;15.03;11.47;;;1.60;99.90;;;;;;5080565;28;20435;-83
2023/12/07 07:35:05;;;;;;;17.23;9.80;;;1.60;99.90;;;;;;5071750;28;20459;-83
2023/12/07 07:37:34;;;;;;;15.37;11.10;;;1.60;99.90;;;;;;5068272;28;20471;-82
2023/12/07 07:40:06;;;;;;;15.27;10.27;;;1.70;99.90;;;;;;5064625;28;20874;-82
2023/12/07 07:42:33;;;;;;;18.37;10.30;;;1.70;99.90;;;;;;5066883;28;20520;-83
2023/12/07 07:45:00;;;;;;;11.97;8.37;;;1.70;99.90;;;;;;5070723;28;20523;-83
2023/12/07 07:47:27;;;;;;;15.47;10.53;;;1.70;99.90;;;;;;5059079;28;20474;-83
2023/12/07 07:49:54;;;;;;;18.33;12.37;;;1.70;99.90;;;;;;5082581;28;20602;-82
2023/12/07 07:52:21;;;;;;;19.03;12.67;;;1.70;99.90;;;;;;5068323;28;20912;-82
2023/12/07 07:54:49;;;;;;;17.87;13.63;;;1.80;99.90;;;;;;5080480;28;21003;-82
2023/12/07 07:57:17;;;;;;;18.60;12.10;;;1.80;99.90;;;;;;5078304;28;20446;-83
2023/12/07 07:59:44;;;;;;;19.30;12.07;;;1.80;99.90;;;;;;5080076;28;20562;-82
2023/12/07 08:02:11;;;;;;;24.93;14.87;;;1.80;99.90;;;;;;5079039;28;20447;-82
2023/12/07 08:04:38;;;;;;;26.70;15.70;;;1.90;99.90;;;;;;5072061;28;20466;-82
2023/12/07 08:07:05;;;;;;;15.07;12.10;;;1.90;99.90;;;;;;5066072;28;20860;-82
2023/12/07 08:09:32;;;;;;;21.03;13.17;;;1.90;99.90;;;;;;5070645;28;20524;-83
2023/12/07 08:12:01;;;;;;;19.87;13.10;;;1.90;99.90;;;;;;5077261;28;20555;-83
2023/12/07 08:14:27;;;;;;;15.60;11.50;;;2.00;99.90;;;;;;5072925;28;20483;-82
2023/12/07 08:16:55;;;;;;;15.47;11.50;;;2.00;99.90;;;;;;5083006;28;20863;-83
2023/12/07 08:19:22;;;;;;;16.63;11.30;;;2.10;99.90;;;;;;5074298;28;20537;-82
2023/12/07 08:21:51;;;;;;;16.00;10.93;;;2.10;99.90;;;;;;5081061;28;20448;-82
2023/12/07 08:24:18;;;;;;;18.67;11.00;;;2.10;99.90;;;;;;5072483;28;20546;-82
2023/12/07 08:26:45;;;;;;;19.97;12.30;;;2.10;99.90;;;;;;5072933;28;20474;-83
2023/12/07 08:29:13;;;;;;;15.60;11.17;;;2.10;99.90;;;;;;5066182;28;20467;-82
2023/12/07 08:31:41;;;;;;;14.47;10.33;;;2.10;99.90;;;;;;5078272;28;21009;-83
2023/12/07 08:34:08;;;;;;;17.40;12.47;;;2.10;99.90;;;;;;5071593;28;20472;-82
2023/12/07 08:36:35;;;;;;;14.07;10.13;;;2.20;99.90;;;;;;5071246;28;20467;-82
2023/12/07 08:39:02;;;;;;;15.33;10.30;;;2.20;99.90;;;;;;5063518;28;20532;-82
2023/12/07 08:41:29;;;;;;;17.17;12.23;;;2.30;99.90;;;;;;5081672;28;20490;-82
2023/12/07 08:43:56;;;;;;;18.97;11.97;;;2.30;99.90;;;;;;5065949;28;20529;-82
2023/12/07 08:46:25;;;;;;;18.50;13.60;;;2.40;99.90;;;;;;5066874;28;20539;-82
2023/12/07 08:48:52;;;;;;;12.23;9.20;;;2.40;99.90;;;;;;5064584;28;20468;-83
2023/12/07 08:51:19;;;;;;;12.10;8.67;;;2.40;99.90;;;;;;5063070;28;20545;-82
2023/12/07 08:53:46;;;;;;;17.10;9.93;;;2.40;99.90;;;;;;5067429;28;20604;-82
2023/12/07 08:56:13;;;;;;;15.90;10.13;;;2.40;99.90;;;;;;5066982;28;20499;-84
2023/12/07 08:58:41;;;;;;;19.33;11.57;;;2.50;99.90;;;;;;5071845;28;20495;-83
2023/12/07 09:01:08;;;;;;;15.90;8.80;;;2.50;99.90;;;;;;5067027;28;20570;-82
2023/12/07 09:03:37;;;;;;;12.00;9.57;;;2.50;99.90;;;;;;5066640;28;20954;-83
2023/12/07 09:06:05;;;;;;;16.90;11.07;;;2.50;99.90;;;;;;5067747;28;20475;-83
2023/12/07 09:08:32;;;;;;;17.87;11.00;;;2.50;99.90;;;;;;5078898;28;21591;-83
2023/12/07 09:10:59;;;;;;;16.60;11.47;;;2.50;99.90;;;;;;5070301;28;20470;-83
2023/12/07 09:13:26;;;;;;;13.83;9.97;;;2.50;99.90;;;;;;5069362;28;20444;-83
2023/12/07 09:15:53;;;;;;;15.90;11.40;;;2.50;99.90;;;;;;5075735;28;20464;-83
2023/12/07 09:18:21;;;;;;;17.43;11.97;;;2.60;99.90;;;;;;5068658;28;20490;-83
2023/12/07 09:20:49;;;;;;;16.63;10.00;;;2.60;99.90;;;;;;5067875;28;20487;-88
2023/12/07 09:23:16;;;;;;;14.03;10.57;;;2.70;99.90;;;;;;5063951;28;20484;-84
2023/12/07 09:25:43;;;;;;;15.20;11.77;;;2.60;99.90;;;;;;5063751;28;20938;-84
2023/12/07 09:28:11;;;;;;;16.77;11.70;;;2.70;99.90;;;;;;5066468;28;20733;-84
2023/12/07 09:30:38;;;;;;;16.23;11.77;;;2.60;99.90;;;;;;5068330;28;20448;-84
2023/12/07 09:33:05;;;;;;;17.07;11.83;;;2.70;99.90;;;;;;5067834;28;20513;-84
2023/12/07 09:35:34;;;;;;;13.67;10.10;;;2.60;99.90;;;;;;5065393;28;20440;-84
2023/12/07 09:38:03;;;;;;;13.20;11.20;;;2.60;99.90;;;;;;5071657;28;20524;-84
2023/12/07 09:40:31;;;;;;;15.03;9.17;;;2.60;99.90;;;;;;5078613;28;20488;-84
2023/12/07 09:42:58;;;;;;;14.03;9.80;;;2.60;99.90;;;;;;5065747;28;21134;-84
2023/12/07 09:45:25;;;;;;;15.90;11.00;;;2.70;99.90;;;;;;5062786;28;20468;-84
2023/12/07 09:47:53;;;;;;;13.97;9.70;;;2.60;99.90;;;;;;5070846;28;20562;-84
2023/12/07 09:50:22;;;;;;;14.70;9.50;;;2.60;99.90;;;;;;5065938;28;20479;-84
2023/12/07 09:52:50;;;;;;;13.00;9.00;;;2.60;99.90;;;;;;5082448;28;20490;-84
2023/12/07 09:55:19;;;;;;;15.30;10.90;;;2.60;99.90;;;;;;5068513;28;21049;-85
2023/12/07 09:57:47;;;;;;;12.07;8.60;;;2.60;99.90;;;;;;5070642;28;21036;-85
2023/12/07 10:00:15;;;;;;;14.97;10.57;;;2.60;99.90;;;;;;5063736;28;20492;-85
2023/12/07 10:02:43;;;;;;;15.33;9.80;;;2.60;99.90;;;;;;5076423;28;20459;-85
2023/12/07 10:05:13;;;;;;;14.07;9.80;;;2.60;99.90;;;;;;5067019;28;20470;-85
2023/12/07 10:07:42;;;;;;;11.83;10.07;;;2.60;99.90;;;;;;5073892;28;20934;-84
2023/12/07 10:10:11;;;;;;;16.90;11.53;;;2.60;99.90;;;;;;5067734;28;21530;-85
2023/12/07 10:12:47;;;;;;;13.57;9.90;;;2.60;99.90;;;;;;5073694;28;20489;-85
2023/12/07 10:15:15;;;;;;;17.13;10.33;;;2.70;99.90;;;;;;5064904;28;20459;-83
2023/12/07 10:17:49;;;;;;;13.40;8.83;;;2.70;99.90;;;;;;5076708;28;20465;-83
2023/12/07 10:20:17;;;;;;;11.30;9.47;;;2.70;99.90;;;;;;5075160;28;20486;-83
2023/12/07 10:22:45;;;;;;;14.80;10.43;;;2.80;99.90;;;;;;5075250;28;20525;-83
2023/12/07 10:25:12;;;;;;;13.70;9.53;;;2.80;99.90;;;;;;5070106;28;20463;-83
2023/12/07 10:27:42;;;;;;;17.10;9.43;;;2.70;99.90;;;;;;5075857;28;20486;-83
2023/12/07 10:30:11;;;;;;;13.50;10.37;;;2.70;99.90;;;;;;5066928;28;20455;-83
2023/12/07 10:32:39;;;;;;;18.07;12.33;;;2.80;99.90;;;;;;5081923;28;20474;-83
2023/12/07 10:35:09;;;;;;;15.33;10.90;;;2.90;99.90;;;;;;5072940;28;20447;-83
2023/12/07 10:37:36;;;;;;;15.10;10.50;;;2.80;99.90;;;;;;5083773;28;20446;-83
2023/12/07 10:40:07;;;;;;;13.90;11.07;;;2.90;99.90;;;;;;5075033;28;20545;-83
2023/12/07 10:42:35;;;;;;;13.00;9.80;;;2.90;99.90;;;;;;5084742;28;20979;-83
2023/12/07 10:45:07;;;;;;;14.47;11.07;;;3.00;99.90;;;;;;5070079;28;20554;-84
2023/12/07 10:47:38;;;;;;;15.30;10.10;;;3.00;99.90;;;;;;5073679;28;20463;-84
2023/12/07 10:50:10;;;;;;;17.60;11.60;;;3.00;99.90;;;;;;5074753;28;20440;-84
2023/12/07 10:52:40;;;;;;;13.27;10.20;;;3.00;99.90;;;;;;5078828;28;20544;-84
2023/12/07 10:55:13;;;;;;;15.50;11.87;;;3.00;99.90;;;;;;5073485;28;20539;-84
2023/12/07 10:57:41;;;;;;;13.87;10.40;;;3.00;99.90;;;;;;5061758;28;20467;-84
2023/12/07 11:00:11;;;;;;;13.37;9.67;;;3.10;99.90;;;;;;5076225;28;20478;-84
2023/12/07 11:02:41;;;;;;;16.80;10.23;;;3.20;99.90;;;;;;5068628;28;20992;-84
2023/12/07 11:05:09;;;;;;;18.83;11.37;;;3.20;99.90;;;;;;5064170;28;20491;-84
2023/12/07 11:07:47;;;;;;;12.90;11.10;;;3.30;99.90;;;;;;5072485;28;20839;-83
2023/12/07 11:10:21;;;;;;;14.27;10.27;;;3.40;99.90;;;;;;5073728;28;20547;-82
2023/12/07 11:12:56;;;;;;;15.60;11.47;;;3.40;99.90;;;;;;5087813;28;20438;-83
2023/12/07 11:15:25;;;;;;;12.40;10.23;;;3.50;99.90;;;;;;5076516;28;20524;-83
2023/12/07 11:17:54;;;;;;;17.77;12.30;;;3.50;99.90;;;;;;5085091;28;20872;-83
2023/12/07 11:20:22;;;;;;;14.77;10.50;;;3.60;99.90;;;;;;5076993;28;20478;-83
2023/12/07 11:22:50;;;;;;;15.40;10.60;;;3.70;99.90;;;;;;5075906;28;20520;-84
2023/12/07 11:25:17;;;;;;;14.90;10.47;;;3.80;99.90;;;;;;5070241;28;20517;-82
2023/12/07 11:27:50;;;;;;;9.83;8.27;;;3.80;99.90;;;;;;5074099;28;20467;-82
2023/12/07 11:30:17;;;;;;;10.53;8.57;;;3.70;99.90;;;;;;5074115;28;20511;-81
2023/12/07 11:32:46;;;;;;;10.73;8.20;;;3.80;99.90;;;;;;5073837;28;20451;-83
2023/12/07 11:35:13;;;;;;;15.47;11.17;;;3.90;99.90;;;;;;5082067;28;20969;-82
2023/12/07 11:38:07;;;;;;;12.87;9.83;;;3.90;99.90;;;;;;5077442;28;20451;-83
2023/12/07 11:40:36;;;;;;;14.03;10.20;;;3.80;99.90;;;;;;5077026;28;20571;-83
2023/12/07 11:43:05;;;;;;;13.43;9.50;;;3.90;99.90;;;;;;5070969;28;20520;-83
2023/12/07 11:45:39;;;;;;;12.53;10.03;;;3.90;99.90;;;;;;5070062;28;20485;-82
2023/12/07 11:48:12;;;;;;;12.67;9.67;;;3.90;99.90;;;;;;5083534;28;20522;-83
2023/12/07 11:50:55;;;;;;;12.13;8.37;;;3.90;99.90;;;;;;5078370;28;20490;-83
2023/12/07 11:53:23;;;;;;;12.90;9.37;;;3.90;99.90;;;;;;5074829;28;20481;-83
2023/12/07 11:55:50;;;;;;;12.00;9.60;;;4.00;99.90;;;;;;5069083;28;20490;-84
2023/12/07 11:58:18;;;;;;;13.40;11.00;;;3.90;99.90;;;;;;5072542;28;20467;-83
2023/12/07 12:00:46;;;;;;;10.67;8.80;;;4.10;99.90;;;;;;5079760;28;20484;-83
2023/12/07 12:03:15;;;;;;;19.70;11.40;;;4.30;99.90;;;;;;5080914;28;20811;-83
2023/12/07 12:05:43;;;;;;;11.27;8.80;;;4.50;99.90;;;;;;5077368;28;21059;-83
2023/12/07 12:08:11;;;;;;;11.43;9.10;;;4.70;99.90;;;;;;5076474;28;20466;-83
2023/12/07 12:10:38;;;;;;;12.03;8.67;;;4.90;99.90;;;;;;5081759;28;20494;-83
2023/12/07 12:13:06;;;;;;;10.73;9.20;;;5.00;99.90;;;;;;5078132;28;20523;-83
2023/12/07 12:15:33;;;;;;;12.70;9.23;;;5.10;99.90;;;;;;5072688;28;20459;-83
2023/12/07 12:18:02;;;;;;;12.80;10.57;;;4.80;99.90;;;;;;5072944;28;20503;-83
2023/12/07 12:20:31;;;;;;;9.43;8.37;;;4.60;99.90;;;;;;5064167;28;20491;-82
2023/12/07 12:22:59;;;;;;;12.03;8.83;;;4.40;99.90;;;;;;5070039;28;21061;-83
2023/12/07 12:25:28;;;;;;;15.27;11.10;;;4.20;99.90;;;;;;5075951;28;20870;-83
2023/12/07 12:27:56;;;;;;;12.03;9.50;;;4.10;99.90;;;;;;5079370;28;20942;-82
2023/12/07 12:30:23;;;;;;;13.43;9.67;;;3.80;99.90;;;;;;5071199;28;20501;-83
2023/12/07 12:32:51;;;;;;;15.37;9.87;;;3.70;99.90;;;;;;5077390;28;20466;-82
2023/12/07 12:35:19;;;;;;;14.00;10.60;;;3.60;99.90;;;;;;5075393;28;20472;-82
2023/12/07 12:37:51;;;;;;;13.77;10.03;;;3.40;99.90;;;;;;5074944;28;20455;-83
2023/12/07 12:40:20;;;;;;;11.70;8.77;;;3.40;99.90;;;;;;5068772;28;20553;-82
2023/12/07 12:42:48;;;;;;;12.90;9.60;;;3.30;99.90;;;;;;5074218;28;20489;-83
2023/12/07 12:45:15;;;;;;;13.40;9.00;;;3.30;99.90;;;;;;5068092;28;20549;-83
2023/12/07 12:47:44;;;;;;;12.33;9.23;;;3.40;99.90;;;;;;5082454;28;20918;-83